createdAt,value
2018-12-22T00:00:44.210Z,7.4
2018-12-22T00:01:44.158Z,7.4
2018-12-22T00:02:44.282Z,7.4
2018-12-22T00:03:44.440Z,7.4
2018-12-22T00:04:44.321Z,7.4
2018-12-22T00:05:47.610Z,7.3
2018-12-22T00:06:47.537Z,7.3
2018-12-22T00:07:47.434Z,7.3
2018-12-22T00:08:47.324Z,7.4
2018-12-22T00:09:48.037Z,7.4
2018-12-22T00:10:48.188Z,7.4
2018-12-22T00:11:48.105Z,7.5
2018-12-22T00:12:48.013Z,7.5
2018-12-22T00:13:47.916Z,7.6
2018-12-22T00:14:47.813Z,7.6
2018-12-22T00:15:48.140Z,7.6
2018-12-22T00:16:48.035Z,7.6
2018-12-22T00:17:50.971Z,7.6
2018-12-22T00:18:50.977Z,7.6
2018-12-22T00:19:50.883Z,7.6
2018-12-22T00:20:53.515Z,7.6
2018-12-22T00:21:56.124Z,7.6
2018-12-22T00:22:56.037Z,7.5
2018-12-22T00:23:55.936Z,7.6
2018-12-22T00:24:56.191Z,7.5
2018-12-22T00:25:56.550Z,7.4
2018-12-22T00:26:56.449Z,7.4
2018-12-22T00:27:57.386Z,7.3
2018-12-22T00:28:57.290Z,7.3
2018-12-22T00:29:57.181Z,7.3
2018-12-22T00:30:57.076Z,7.3
2018-12-22T00:31:56.962Z,7.3
2018-12-22T00:32:56.906Z,7.3
2018-12-22T00:33:56.902Z,7.3
2018-12-22T00:34:56.800Z,7.3
2018-12-22T00:35:57.135Z,7.3
2018-12-22T00:36:57.031Z,7.3
2018-12-22T00:37:56.928Z,7.2
2018-12-22T00:38:56.904Z,7.2
2018-12-22T00:39:56.794Z,7.2
2018-12-22T00:40:56.681Z,7.2
2018-12-22T00:41:56.579Z,7.2
2018-12-22T00:42:56.535Z,7.2
2018-12-22T00:43:59.498Z,7.2
2018-12-22T00:45:02.390Z,7.2
2018-12-22T00:46:02.673Z,7.2
2018-12-22T00:47:02.562Z,7.2
2018-12-22T00:48:02.467Z,7.2
2018-12-22T00:49:02.424Z,7.2
2018-12-22T00:50:02.320Z,7.2
2018-12-22T00:51:02.236Z,7.2
2018-12-22T00:52:02.152Z,7.2
2018-12-22T00:53:02.048Z,7.2
2018-12-22T00:54:01.948Z,7.2
2018-12-22T00:55:01.906Z,7.2
2018-12-22T00:56:03.290Z,7.2
2018-12-22T00:57:03.197Z,7.2
2018-12-22T00:58:04.357Z,7.2
2018-12-22T00:59:04.261Z,7.2
2018-12-22T01:00:04.181Z,7.2
2018-12-22T01:01:04.066Z,7.3
2018-12-22T01:02:04.177Z,7.3
2018-12-22T01:03:04.087Z,7.3
2018-12-22T01:04:03.991Z,7.4
2018-12-22T01:05:03.892Z,7.4
2018-12-22T01:06:04.882Z,7.5
2018-12-22T01:07:04.773Z,7.5
2018-12-22T01:08:04.667Z,7.6
2018-12-22T01:09:07.377Z,7.6
2018-12-22T01:10:07.298Z,7.6
2018-12-22T01:11:09.919Z,7.6
2018-12-22T01:12:10.134Z,7.6
2018-12-22T01:13:10.032Z,7.6
2018-12-22T01:14:09.949Z,7.5
2018-12-22T01:15:10.920Z,7.5
2018-12-22T01:16:11.224Z,7.5
2018-12-22T01:17:12.243Z,7.4
2018-12-22T01:18:12.135Z,7.4
2018-12-22T01:19:12.206Z,7.4
2018-12-22T01:20:12.127Z,7.3
2018-12-22T01:21:12.038Z,7.3
2018-12-22T01:22:12.158Z,7.3
2018-12-22T01:23:12.067Z,7.3
2018-12-22T01:24:11.954Z,7.3
2018-12-22T01:25:11.866Z,7.3
2018-12-22T01:26:12.428Z,7.2
2018-12-22T01:27:12.316Z,7.2
2018-12-22T01:28:12.206Z,7.1
2018-12-22T01:29:12.090Z,7.1
2018-12-22T01:30:11.986Z,7.1
2018-12-22T01:31:15.840Z,7.1
2018-12-22T01:32:15.740Z,7.1
2018-12-22T01:33:15.618Z,7.1
2018-12-22T01:34:18.868Z,7.1
2018-12-22T01:35:18.774Z,7.1
2018-12-22T01:36:19.329Z,7
2018-12-22T01:37:28.182Z,7
2018-12-22T01:38:28.070Z,7
2018-12-22T01:39:27.955Z,7
2018-12-22T01:40:27.842Z,7
2018-12-22T01:41:30.684Z,7
2018-12-22T01:42:30.689Z,7
2018-12-22T01:43:30.584Z,7
2018-12-22T01:44:30.733Z,7
2018-12-22T01:45:30.617Z,7
2018-12-22T01:46:33.947Z,6.9
2018-12-22T01:47:33.890Z,6.9
2018-12-22T01:48:33.789Z,7
2018-12-22T01:49:33.723Z,7
2018-12-22T01:50:33.616Z,7
2018-12-22T01:51:33.484Z,7.1
2018-12-22T01:52:33.414Z,7.2
2018-12-22T01:53:33.288Z,7.3
2018-12-22T01:54:33.182Z,7.3
2018-12-22T01:55:33.072Z,7.3
2018-12-22T01:56:33.631Z,7.4
2018-12-22T01:57:33.530Z,7.4
2018-12-22T01:58:34.764Z,7.4
2018-12-22T01:59:34.666Z,7.5
2018-12-22T02:00:34.546Z,7.5
2018-12-22T02:01:34.449Z,7.6
2018-12-22T02:02:34.348Z,7.7
2018-12-22T02:03:35.297Z,7.7
2018-12-22T02:04:35.192Z,7.9
2018-12-22T02:05:35.082Z,8
2018-12-22T02:06:35.613Z,8.2
2018-12-22T02:07:35.547Z,8.2
2018-12-22T02:08:35.462Z,8.3
2018-12-22T02:09:35.578Z,8.4
2018-12-22T02:10:35.710Z,8.5
2018-12-22T02:11:35.608Z,8.5
2018-12-22T02:12:44.213Z,8.5
2018-12-22T02:13:44.139Z,8.5
2018-12-22T02:14:44.028Z,8.6
2018-12-22T02:15:44.161Z,8.6
2018-12-22T02:16:44.723Z,8.6
2018-12-22T02:17:44.599Z,8.6
2018-12-22T02:18:45.035Z,8.7
2018-12-22T02:19:45.152Z,8.7
2018-12-22T02:20:45.065Z,8.7
2018-12-22T02:21:44.979Z,8.7
2018-12-22T02:22:44.887Z,8.7
2018-12-22T02:23:44.772Z,8.8
2018-12-22T02:24:44.960Z,8.8
2018-12-22T02:25:44.853Z,8.8
2018-12-22T02:26:45.246Z,8.8
2018-12-22T02:27:45.155Z,8.8
2018-12-22T02:28:45.039Z,8.8
2018-12-22T02:29:44.959Z,8.9
2018-12-22T02:30:44.893Z,8.9
2018-12-22T02:31:44.837Z,9
2018-12-22T02:32:45.082Z,9.1
2018-12-22T02:33:45.206Z,9.2
2018-12-22T02:34:45.153Z,9.3
2018-12-22T02:35:45.100Z,9.3
2018-12-22T02:36:45.666Z,9.3
2018-12-22T02:37:45.572Z,9.4
2018-12-22T02:38:45.687Z,9.5
2018-12-22T02:39:45.644Z,9.4
2018-12-22T02:40:45.555Z,9.5
2018-12-22T02:41:48.233Z,9.4
2018-12-22T02:42:48.271Z,9.4
2018-12-22T02:43:48.202Z,9.4
2018-12-22T02:44:51.313Z,9.4
2018-12-22T02:45:51.193Z,9.4
2018-12-22T02:46:51.540Z,9.4
2018-12-22T02:47:51.431Z,9.4
2018-12-22T02:48:51.331Z,9.4
2018-12-22T02:49:54.137Z,9.4
2018-12-22T02:50:54.037Z,9.4
2018-12-22T02:51:53.921Z,9.5
2018-12-22T02:52:54.043Z,9.5
2018-12-22T02:53:53.939Z,9.6
2018-12-22T02:54:53.831Z,9.5
2018-12-22T02:55:56.525Z,9.6
2018-12-22T02:56:56.829Z,9.7
2018-12-22T02:57:56.795Z,9.6
2018-12-22T02:59:06.535Z,9.7
2018-12-22T03:00:09.459Z,9.7
2018-12-22T03:01:09.381Z,9.8
2018-12-22T03:02:09.271Z,9.7
2018-12-22T03:03:11.987Z,9.7
2018-12-22T03:04:11.908Z,9.8
2018-12-22T03:05:11.837Z,9.7
2018-12-22T03:06:12.030Z,9.7
2018-12-22T03:07:12.387Z,9.7
2018-12-22T03:08:12.263Z,9.6
2018-12-22T03:09:12.194Z,9.6
2018-12-22T03:10:12.105Z,9.7
2018-12-22T03:11:12.032Z,9.7
2018-12-22T03:12:11.950Z,9.7
2018-12-22T03:13:11.842Z,9.6
2018-12-22T03:14:11.867Z,9.7
2018-12-22T03:15:12.018Z,9.8
2018-12-22T03:16:11.913Z,9.8
2018-12-22T03:17:12.538Z,9.8
2018-12-22T03:18:12.661Z,9.8
2018-12-22T03:19:12.566Z,9.9
2018-12-22T03:20:12.486Z,9.9
2018-12-22T03:21:12.399Z,9.9
2018-12-22T03:22:15.120Z,9.9
2018-12-22T03:23:15.004Z,9.9
2018-12-22T03:24:14.888Z,9.9
2018-12-22T03:25:14.785Z,9.9
2018-12-22T03:26:14.926Z,9.8
2018-12-22T03:27:15.284Z,9.7
2018-12-22T03:28:15.882Z,9.7
2018-12-22T03:29:16.668Z,9.7
2018-12-22T03:30:16.599Z,9.7
2018-12-22T03:31:16.766Z,9.6
2018-12-22T03:32:16.735Z,9.6
2018-12-22T03:33:16.671Z,9.7
2018-12-22T03:34:16.806Z,9.7
2018-12-22T03:35:16.680Z,9.6
2018-12-22T03:36:16.585Z,9.6
2018-12-22T03:37:16.956Z,9.6
2018-12-22T03:38:16.894Z,9.6
2018-12-22T03:39:19.809Z,9.6
2018-12-22T03:40:19.716Z,9.6
2018-12-22T03:41:19.607Z,9.6
2018-12-22T03:42:19.487Z,9.6
2018-12-22T03:43:25.175Z,9.5
2018-12-22T03:44:25.121Z,9.6
2018-12-22T03:45:25.070Z,9.6
2018-12-22T03:46:26.002Z,9.6
2018-12-22T03:47:26.330Z,9.5
2018-12-22T03:48:26.262Z,9.5
2018-12-22T03:49:26.376Z,9.5
2018-12-22T03:50:26.270Z,9.6
2018-12-22T03:51:26.158Z,9.6
2018-12-22T03:52:26.266Z,9.7
2018-12-22T03:53:26.248Z,9.6
2018-12-22T03:54:26.143Z,9.7
2018-12-22T03:55:26.297Z,9.7
2018-12-22T03:56:26.201Z,9.7
2018-12-22T03:57:26.538Z,9.7
2018-12-22T03:58:27.426Z,9.7
2018-12-22T03:59:27.389Z,9.7
2018-12-22T04:00:27.300Z,9.7
2018-12-22T04:01:27.418Z,9.8
2018-12-22T04:02:27.314Z,9.9
2018-12-22T04:03:27.338Z,9.8
2018-12-22T04:04:27.700Z,9.8
2018-12-22T04:05:27.712Z,9.8
2018-12-22T04:06:27.646Z,9.8
2018-12-22T04:07:30.901Z,9.9
2018-12-22T04:08:30.809Z,9.8
2018-12-22T04:09:30.714Z,9.8
2018-12-22T04:10:36.927Z,9.8
2018-12-22T04:11:36.824Z,9.8
2018-12-22T04:12:36.728Z,9.8
2018-12-22T04:13:37.333Z,9.7
2018-12-22T04:14:37.232Z,9.8
2018-12-22T04:15:41.170Z,9.8
2018-12-22T04:16:41.082Z,9.7
2018-12-22T04:17:41.671Z,9.6
2018-12-22T04:18:41.555Z,9.6
2018-12-22T04:19:41.459Z,9.6
2018-12-22T04:20:41.383Z,9.5
2018-12-22T04:21:41.283Z,9.5
2018-12-22T04:22:44.179Z,9.5
2018-12-22T04:23:44.313Z,9.5
2018-12-22T04:24:44.203Z,9.5
2018-12-22T04:25:44.337Z,9.5
2018-12-22T04:26:44.286Z,9.5
2018-12-22T04:27:44.815Z,9.5
2018-12-22T04:28:44.716Z,9.5
2018-12-22T04:29:44.655Z,9.5
2018-12-22T04:30:44.541Z,9.5
2018-12-22T04:31:47.633Z,9.5
2018-12-22T04:32:47.510Z,9.5
2018-12-22T04:33:47.394Z,9.5
2018-12-22T04:34:47.987Z,9.6
2018-12-22T04:35:47.915Z,9.6
2018-12-22T04:36:47.829Z,9.5
2018-12-22T04:37:49.155Z,9.5
2018-12-22T04:38:49.058Z,9.6
2018-12-22T04:39:57.869Z,9.6
2018-12-22T04:40:57.795Z,9.5
2018-12-22T04:41:57.868Z,9.6
2018-12-22T04:42:57.749Z,9.6
2018-12-22T04:44:06.714Z,9.6
2018-12-22T04:45:06.755Z,9.7
2018-12-22T04:46:06.657Z,9.7
2018-12-22T04:47:06.682Z,9.6
2018-12-22T04:48:07.013Z,9.7
2018-12-22T04:49:06.907Z,9.7
2018-12-22T04:50:06.813Z,9.7
2018-12-22T04:51:06.707Z,9.7
2018-12-22T04:52:06.912Z,9.7
2018-12-22T04:53:06.836Z,9.7
2018-12-22T04:54:06.746Z,9.8
2018-12-22T04:55:06.665Z,9.8
2018-12-22T04:56:06.790Z,9.8
2018-12-22T04:57:06.671Z,9.8
2018-12-22T04:58:12.672Z,9.8
2018-12-22T04:59:12.587Z,9.8
2018-12-22T05:00:12.474Z,9.8
2018-12-22T05:01:12.360Z,9.8
2018-12-22T05:02:12.242Z,9.8
2018-12-22T05:03:12.167Z,9.8
2018-12-22T05:04:12.051Z,9.8
2018-12-22T05:05:11.944Z,9.8
2018-12-22T05:06:12.858Z,9.8
2018-12-22T05:07:12.753Z,9.8
2018-12-22T05:08:13.346Z,9.8
2018-12-22T05:09:13.239Z,9.8
2018-12-22T05:10:13.209Z,9.8
2018-12-22T05:11:16.105Z,9.8
2018-12-22T05:12:15.993Z,9.9
2018-12-22T05:13:15.929Z,9.9
2018-12-22T05:14:16.078Z,9.9
2018-12-22T05:15:16.092Z,9.8
2018-12-22T05:16:16.112Z,9.8
2018-12-22T05:17:17.039Z,9.8
2018-12-22T05:18:17.382Z,9.8
2018-12-22T05:19:17.263Z,9.8
2018-12-22T05:20:20.158Z,9.9
2018-12-22T05:21:20.199Z,9.8
2018-12-22T05:22:20.092Z,9.8
2018-12-22T05:23:23.838Z,9.8
2018-12-22T05:24:23.709Z,9.8
2018-12-22T05:25:23.723Z,9.8
2018-12-22T05:26:23.828Z,9.9
2018-12-22T05:27:23.828Z,9.9
2018-12-22T05:28:24.378Z,9.9
2018-12-22T05:29:24.308Z,9.9
2018-12-22T05:30:24.358Z,9.9
2018-12-22T05:31:28.242Z,9.9
2018-12-22T05:32:28.131Z,9.9
2018-12-22T05:33:28.318Z,9.9
2018-12-22T05:34:28.220Z,9.9
2018-12-22T05:35:28.128Z,9.9
2018-12-22T05:36:28.022Z,9.9
2018-12-22T05:37:28.138Z,10
2018-12-22T05:38:31.530Z,9.9
2018-12-22T05:39:31.442Z,9.9
2018-12-22T05:40:31.342Z,9.9
2018-12-22T05:41:31.249Z,9.9
2018-12-22T05:42:31.146Z,9.9
2018-12-22T05:43:33.852Z,10
2018-12-22T05:44:33.784Z,9.9
2018-12-22T05:45:33.748Z,10
2018-12-22T05:46:33.634Z,10
2018-12-22T05:47:36.474Z,9.9
2018-12-22T05:48:36.806Z,10
2018-12-22T05:49:36.709Z,10
2018-12-22T05:50:36.592Z,10
2018-12-22T05:51:36.486Z,10
2018-12-22T05:52:36.602Z,10
2018-12-22T05:53:36.489Z,10
2018-12-22T05:54:36.392Z,10
2018-12-22T05:55:36.520Z,10
2018-12-22T05:56:36.519Z,10
2018-12-22T05:57:36.402Z,10
2018-12-22T05:58:39.764Z,10
2018-12-22T05:59:39.680Z,10
2018-12-22T06:00:39.572Z,10
2018-12-22T06:01:39.485Z,10
2018-12-22T06:02:39.364Z,10
2018-12-22T06:03:39.243Z,10
2018-12-22T06:04:39.163Z,10.1
2018-12-22T06:05:39.288Z,10.1
2018-12-22T06:06:39.171Z,10.1
2018-12-22T06:07:39.056Z,10.1
2018-12-22T06:08:39.362Z,10.1
2018-12-22T06:09:39.520Z,10.1
2018-12-22T06:10:39.424Z,10.1
2018-12-22T06:11:39.316Z,10.1
2018-12-22T06:12:39.206Z,10.2
2018-12-22T06:13:39.104Z,10.2
2018-12-22T06:14:39.325Z,10.2
2018-12-22T06:15:39.236Z,10.3
2018-12-22T06:16:39.120Z,10.3
2018-12-22T06:17:41.912Z,10.3
2018-12-22T06:18:42.232Z,10.4
2018-12-22T06:19:45.020Z,10.4
2018-12-22T06:20:45.631Z,10.4
2018-12-22T06:21:45.498Z,10.4
2018-12-22T06:22:46.070Z,10.4
2018-12-22T06:23:45.963Z,10.5
2018-12-22T06:24:45.877Z,10.4
2018-12-22T06:25:45.795Z,10.4
2018-12-22T06:26:45.717Z,10.3
2018-12-22T06:27:45.612Z,10.4
2018-12-22T06:28:45.938Z,10.3
2018-12-22T06:29:48.796Z,10.3
2018-12-22T06:30:48.684Z,10.3
2018-12-22T06:31:48.592Z,10.3
2018-12-22T06:32:48.714Z,10.2
2018-12-22T06:33:48.594Z,10.3
2018-12-22T06:34:48.696Z,10.2
2018-12-22T06:35:48.592Z,10.2
2018-12-22T06:36:48.597Z,10.2
2018-12-22T06:37:48.490Z,10.2
2018-12-22T06:38:48.841Z,10.2
2018-12-22T06:39:48.730Z,10.2
2018-12-22T06:40:48.855Z,10.2
2018-12-22T06:41:48.750Z,10.2
2018-12-22T06:42:48.643Z,10.2
2018-12-22T06:43:48.543Z,10.1
2018-12-22T06:44:48.451Z,10.1
2018-12-22T06:45:48.361Z,10.2
2018-12-22T06:46:48.517Z,10.1
2018-12-22T06:47:48.417Z,10.2
2018-12-22T06:48:48.740Z,10.1
2018-12-22T06:49:48.638Z,10.1
2018-12-22T06:50:48.513Z,10.1
2018-12-22T06:51:48.415Z,10.1
2018-12-22T06:52:48.314Z,10.1
2018-12-22T06:53:48.271Z,10.1
2018-12-22T06:54:48.390Z,10.1
2018-12-22T06:55:48.282Z,10.1
2018-12-22T06:56:48.194Z,10.1
2018-12-22T06:57:50.975Z,10.1
2018-12-22T06:58:51.280Z,10.2
2018-12-22T06:59:52.857Z,10.2
2018-12-22T07:00:52.767Z,10.2
2018-12-22T07:01:52.713Z,10.2
2018-12-22T07:02:52.847Z,10.1
2018-12-22T07:03:52.731Z,10.1
2018-12-22T07:04:52.622Z,10.1
2018-12-22T07:05:53.220Z,10.1
2018-12-22T07:06:53.115Z,10
2018-12-22T07:07:53.129Z,10
2018-12-22T07:08:53.855Z,10.1
2018-12-22T07:09:53.748Z,10.1
2018-12-22T07:10:56.207Z,10.1
2018-12-22T07:11:56.337Z,10.1
2018-12-22T07:12:56.241Z,10.1
2018-12-22T07:13:56.115Z,10.1
2018-12-22T07:14:57.044Z,10.1
2018-12-22T07:15:56.933Z,10.1
2018-12-22T07:16:57.054Z,10.1
2018-12-22T07:17:57.001Z,10.1
2018-12-22T07:18:57.559Z,10.1
2018-12-22T07:19:57.466Z,10
2018-12-22T07:20:57.350Z,10
2018-12-22T07:21:57.250Z,10
2018-12-22T07:22:57.133Z,10
2018-12-22T07:23:57.053Z,10.1
2018-12-22T07:24:57.167Z,10
2018-12-22T07:25:57.058Z,10
2018-12-22T07:26:56.940Z,10
2018-12-22T07:27:57.520Z,10
2018-12-22T07:28:57.862Z,10
2018-12-22T07:29:57.764Z,10
2018-12-22T07:30:57.676Z,9.9
2018-12-22T07:31:57.582Z,10
2018-12-22T07:32:58.100Z,10
2018-12-22T07:34:00.615Z,10
2018-12-22T07:35:00.910Z,10
2018-12-22T07:36:00.802Z,10
2018-12-22T07:37:00.940Z,9.9
2018-12-22T07:38:00.836Z,9.9
2018-12-22T07:39:02.501Z,9.9
2018-12-22T07:40:02.401Z,9.9
2018-12-22T07:41:02.301Z,9.8
2018-12-22T07:42:02.201Z,9.8
2018-12-22T07:43:02.145Z,9.8
2018-12-22T07:44:02.069Z,9.8
2018-12-22T07:45:03.001Z,9.7
2018-12-22T07:46:02.904Z,9.7
2018-12-22T07:47:02.796Z,9.7
2018-12-22T07:48:05.697Z,9.5
2018-12-22T07:49:06.025Z,9.5
2018-12-22T07:50:05.910Z,9.5
2018-12-22T07:51:06.818Z,9.4
2018-12-22T07:52:06.710Z,9.4
2018-12-22T07:53:06.606Z,9.5
2018-12-22T07:54:06.732Z,9.4
2018-12-22T07:55:06.602Z,9.4
2018-12-22T07:56:06.582Z,9.4
2018-12-22T07:57:06.471Z,9.4
2018-12-22T07:58:06.349Z,9.4
2018-12-22T07:59:06.690Z,9.4
2018-12-22T08:00:06.623Z,9.4
2018-12-22T08:01:06.517Z,9.3
2018-12-22T08:02:06.406Z,9.3
2018-12-22T08:03:06.309Z,9.3
2018-12-22T08:04:06.197Z,9.3
2018-12-22T08:05:06.318Z,9.2
2018-12-22T08:06:06.216Z,9.2
2018-12-22T08:07:06.796Z,9.1
2018-12-22T08:08:06.678Z,9.1
2018-12-22T08:09:07.263Z,9
2018-12-22T08:10:07.166Z,8.9
2018-12-22T08:11:07.105Z,8.9
2018-12-22T08:12:07.005Z,8.9
2018-12-22T08:13:06.937Z,8.9
2018-12-22T08:14:06.857Z,8.9
2018-12-22T08:15:07.091Z,8.9
2018-12-22T08:16:07.020Z,8.9
2018-12-22T08:17:06.917Z,8.8
2018-12-22T08:18:07.049Z,8.8
2018-12-22T08:19:07.357Z,8.8
2018-12-22T08:20:07.462Z,8.7
2018-12-22T08:21:07.605Z,8.7
2018-12-22T08:22:09.147Z,8.8
2018-12-22T08:23:09.033Z,8.8
2018-12-22T08:24:09.165Z,8.9
2018-12-22T08:25:09.047Z,8.9
2018-12-22T08:26:09.001Z,9
2018-12-22T08:27:08.896Z,9
2018-12-22T08:28:08.774Z,9.1
2018-12-22T08:29:09.135Z,9.1
2018-12-22T08:30:09.035Z,9.1
2018-12-22T08:31:09.177Z,9.2
2018-12-22T08:32:09.089Z,9.2
2018-12-22T08:33:08.985Z,9.2
2018-12-22T08:34:11.559Z,9.2
2018-12-22T08:35:11.447Z,9.2
2018-12-22T08:36:11.335Z,9.1
2018-12-22T08:37:11.933Z,9.2
2018-12-22T08:38:11.841Z,9.2
2018-12-22T08:39:12.181Z,9.1
2018-12-22T08:40:12.087Z,9.1
2018-12-22T08:41:11.983Z,9
2018-12-22T08:42:11.915Z,9.1
2018-12-22T08:43:12.919Z,9.1
2018-12-22T08:44:12.883Z,9.1
2018-12-22T08:45:12.789Z,9.1
2018-12-22T08:46:13.712Z,9.1
2018-12-22T08:47:16.761Z,9.1
2018-12-22T08:48:16.639Z,9.1
2018-12-22T08:49:17.187Z,9
2018-12-22T08:50:17.101Z,9
2018-12-22T08:51:16.999Z,9
2018-12-22T08:52:16.898Z,9.1
2018-12-22T08:53:16.817Z,9.1
2018-12-22T08:54:16.698Z,9.1
2018-12-22T08:55:16.601Z,9.1
2018-12-22T08:56:16.526Z,9.1
2018-12-22T08:57:16.409Z,9.1
2018-12-22T08:58:16.545Z,9.1
2018-12-22T08:59:16.870Z,9.1
2018-12-22T09:00:16.773Z,9.1
2018-12-22T09:01:16.673Z,9.1
2018-12-22T09:02:16.567Z,9.1
2018-12-22T09:03:16.479Z,9.1
2018-12-22T09:04:16.365Z,9.1
2018-12-22T09:05:16.258Z,9.2
2018-12-22T09:06:16.147Z,9.2
2018-12-22T09:07:16.032Z,9.3
2018-12-22T09:08:16.047Z,9.2
2018-12-22T09:09:16.491Z,9.2
2018-12-22T09:10:16.423Z,9.2
2018-12-22T09:11:19.093Z,9.2
2018-12-22T09:12:19.003Z,9.3
2018-12-22T09:13:21.587Z,9.4
2018-12-22T09:14:21.512Z,9.3
2018-12-22T09:15:21.406Z,9.4
2018-12-22T09:16:21.311Z,9.3
2018-12-22T09:17:21.324Z,9.3
2018-12-22T09:18:21.294Z,9.3
2018-12-22T09:19:21.636Z,9.3
2018-12-22T09:20:21.549Z,9.3
2018-12-22T09:21:21.441Z,9.4
2018-12-22T09:22:21.349Z,9.4
2018-12-22T09:23:21.243Z,9.4
2018-12-22T09:24:21.237Z,9.4
2018-12-22T09:25:21.131Z,9.4
2018-12-22T09:26:21.032Z,9.4
2018-12-22T09:27:20.931Z,9.5
2018-12-22T09:28:20.862Z,9.5
2018-12-22T09:29:21.407Z,9.4
2018-12-22T09:30:21.316Z,9.5
2018-12-22T09:31:21.191Z,9.5
2018-12-22T09:32:21.085Z,9.5
2018-12-22T09:33:21.002Z,9.6
2018-12-22T09:34:20.933Z,9.6
2018-12-22T09:35:20.822Z,9.6
2018-12-22T09:36:21.439Z,9.6
2018-12-22T09:37:21.384Z,9.6
2018-12-22T09:38:21.314Z,9.6
2018-12-22T09:39:22.356Z,9.6
2018-12-22T09:40:22.269Z,9.7
2018-12-22T09:41:22.177Z,9.6
2018-12-22T09:42:22.769Z,9.7
2018-12-22T09:43:22.680Z,9.7
2018-12-22T09:44:22.569Z,9.8
2018-12-22T09:45:22.510Z,9.8
2018-12-22T09:46:22.759Z,9.9
2018-12-22T09:47:22.765Z,9.9
2018-12-22T09:48:22.669Z,9.9
2018-12-22T09:49:23.249Z,10
2018-12-22T09:50:23.135Z,9.9
2018-12-22T09:51:23.731Z,9.9
2018-12-22T09:52:23.627Z,9.9
2018-12-22T09:53:23.501Z,10
2018-12-22T09:54:23.529Z,10
2018-12-22T09:55:23.455Z,10
2018-12-22T09:56:23.371Z,9.9
2018-12-22T09:57:23.285Z,9.9
2018-12-22T09:58:23.415Z,10
2018-12-22T09:59:23.733Z,10
2018-12-22T10:00:24.348Z,9.9
2018-12-22T10:01:24.254Z,9.9
2018-12-22T10:02:24.133Z,9.8
2018-12-22T10:03:24.271Z,9.7
2018-12-22T10:04:24.166Z,9.6
2018-12-22T10:05:24.056Z,9.5
2018-12-22T10:06:23.975Z,9.5
2018-12-22T10:07:24.089Z,9.3
2018-12-22T10:08:23.975Z,9.2
2018-12-22T10:09:24.544Z,9.2
2018-12-22T10:10:24.441Z,9.2
2018-12-22T10:11:24.359Z,9.1
2018-12-22T10:12:24.249Z,9
2018-12-22T10:13:24.127Z,9
2018-12-22T10:14:24.013Z,9
2018-12-22T10:15:24.005Z,8.9
2018-12-22T10:16:23.909Z,8.8
2018-12-22T10:17:23.876Z,8.8
2018-12-22T10:18:23.996Z,8.6
2018-12-22T10:19:25.361Z,8.7
2018-12-22T10:20:25.297Z,8.7
2018-12-22T10:21:25.424Z,8.7
2018-12-22T10:22:25.331Z,8.7
2018-12-22T10:23:25.218Z,8.7
2018-12-22T10:24:25.130Z,8.5
2018-12-22T10:25:25.019Z,8.4
2018-12-22T10:26:24.912Z,8.5
2018-12-22T10:27:24.809Z,8.5
2018-12-22T10:28:24.945Z,8.6
2018-12-22T10:29:25.304Z,8.6
2018-12-22T10:30:25.195Z,8.6
2018-12-22T10:31:25.086Z,8.6
2018-12-22T10:32:25.020Z,8.6
2018-12-22T10:33:24.888Z,8.7
2018-12-22T10:34:25.014Z,8.7
2018-12-22T10:35:24.937Z,8.7
2018-12-22T10:36:24.834Z,8.7
2018-12-22T10:37:24.753Z,8.7
2018-12-22T10:38:24.647Z,8.6
2018-12-22T10:39:25.047Z,8.7
2018-12-22T10:40:24.985Z,8.6
2018-12-22T10:41:24.860Z,8.6
2018-12-22T10:42:24.754Z,8.6
2018-12-22T10:43:24.717Z,8.5
2018-12-22T10:44:24.625Z,8.5
2018-12-22T10:45:24.517Z,8.5
2018-12-22T10:46:24.387Z,8.5
2018-12-22T10:47:24.969Z,8.5
2018-12-22T10:48:25.012Z,8.5
2018-12-22T10:49:25.347Z,8.4
2018-12-22T10:50:25.237Z,8.5
2018-12-22T10:51:25.233Z,8.3
2018-12-22T10:52:25.150Z,8.4
2018-12-22T10:53:25.493Z,8.4
2018-12-22T10:54:25.489Z,8.3
2018-12-22T10:55:25.412Z,8.2
2018-12-22T10:56:25.995Z,8.3
2018-12-22T10:58:25.813Z,8.4
2018-12-22T10:59:26.183Z,8.5
2018-12-22T11:00:26.078Z,8.5
2018-12-22T11:01:27.361Z,8.6
2018-12-22T11:02:27.277Z,8.7
2018-12-22T11:03:27.185Z,8.7
2018-12-22T11:04:27.086Z,8.6
2018-12-22T11:05:26.987Z,8.7
2018-12-22T11:06:26.886Z,8.7
2018-12-22T11:07:26.789Z,8.7
2018-12-22T11:08:26.671Z,8.8
2018-12-22T11:09:27.086Z,8.7
2018-12-22T11:10:26.998Z,8.7
2018-12-22T11:11:26.888Z,8.8
2018-12-22T11:12:26.779Z,8.7
2018-12-22T11:13:26.711Z,8.7
2018-12-22T11:14:26.621Z,8.7
2018-12-22T11:15:26.519Z,8.7
2018-12-22T11:16:26.431Z,8.7
2018-12-22T11:17:26.328Z,8.7
2018-12-22T11:18:26.226Z,8.6
2018-12-22T11:19:26.517Z,8.5
2018-12-22T11:20:26.441Z,8.5
2018-12-22T11:21:26.358Z,8.5
2018-12-22T11:22:26.238Z,8.5
2018-12-22T11:23:26.140Z,8.4
2018-12-22T11:24:26.032Z,8.3
2018-12-22T11:25:25.948Z,8.3
2018-12-22T11:26:25.938Z,8.3
2018-12-22T11:27:26.021Z,8.2
2018-12-22T11:28:25.910Z,8.2
2018-12-22T11:29:26.214Z,8.2
2018-12-22T11:30:26.110Z,8.1
2018-12-22T11:31:26.127Z,8.1
2018-12-22T11:32:35.159Z,8.2
2018-12-22T11:33:35.065Z,8.1
2018-12-22T11:34:34.953Z,8.2
2018-12-22T11:35:34.839Z,8.2
2018-12-22T11:36:34.775Z,8.2
2018-12-22T11:37:34.707Z,8.2
2018-12-22T11:38:34.620Z,8.1
2018-12-22T11:39:34.979Z,8.1
2018-12-22T11:40:34.893Z,8.1
2018-12-22T11:41:35.373Z,8.1
2018-12-22T11:42:35.785Z,8.1
2018-12-22T11:43:35.687Z,8.1
2018-12-22T11:44:35.604Z,8.1
2018-12-22T11:45:35.756Z,8.1
2018-12-22T11:46:35.681Z,8
2018-12-22T11:47:37.271Z,8
2018-12-22T11:48:37.161Z,7.9
2018-12-22T11:49:37.491Z,7.9
2018-12-22T11:50:37.400Z,7.9
2018-12-22T11:51:37.327Z,7.8
2018-12-22T11:52:39.441Z,7.7
2018-12-22T11:53:39.445Z,7.7
2018-12-22T11:54:39.337Z,7.6
2018-12-22T11:55:39.228Z,7.6
2018-12-22T11:56:39.225Z,7.7
2018-12-22T11:57:39.231Z,7.7
2018-12-22T11:58:39.157Z,7.6
2018-12-22T11:59:39.471Z,7.6
2018-12-22T12:00:39.389Z,7.6
2018-12-22T12:01:44.287Z,7.6
2018-12-22T12:02:44.185Z,7.6
2018-12-22T12:03:44.083Z,7.6
2018-12-22T12:04:44.000Z,7.5
2018-12-22T12:05:43.891Z,7.6
2018-12-22T12:06:43.797Z,7.5
2018-12-22T12:07:43.731Z,7.5
2018-12-22T12:08:43.638Z,7.5
2018-12-22T12:09:44.029Z,7.5
2018-12-22T12:10:43.938Z,7.4
2018-12-22T12:11:43.873Z,7.5
2018-12-22T12:12:43.790Z,7.5
2018-12-22T12:13:43.689Z,7.4
2018-12-22T12:14:43.563Z,7.4
2018-12-22T12:15:43.561Z,7.4
2018-12-22T12:16:43.461Z,7.2
2018-12-22T12:17:43.394Z,7.4
2018-12-22T12:18:43.291Z,7.4
2018-12-22T12:19:43.600Z,7.4
2018-12-22T12:20:43.523Z,7.4
2018-12-22T12:21:43.419Z,7.3
2018-12-22T12:22:43.327Z,7.4
2018-12-22T12:23:43.239Z,7.4
2018-12-22T12:24:43.129Z,7.4
2018-12-22T12:25:43.031Z,7.4
2018-12-22T12:26:42.941Z,7.4
2018-12-22T12:27:42.820Z,7.4
2018-12-22T12:28:42.738Z,7.5
2018-12-22T12:29:43.093Z,7.5
2018-12-22T12:30:42.981Z,7.5
2018-12-22T12:31:42.870Z,7.6
2018-12-22T12:32:42.765Z,7.6
2018-12-22T12:33:42.650Z,7.6
2018-12-22T12:34:42.554Z,7.6
2018-12-22T12:35:42.517Z,7.7
2018-12-22T12:36:42.922Z,7.6
2018-12-22T12:37:43.061Z,7.7
2018-12-22T12:38:43.182Z,7.6
2018-12-22T12:39:43.527Z,7.7
2018-12-22T12:40:43.574Z,7.7
2018-12-22T12:41:43.482Z,7.7
2018-12-22T12:42:46.288Z,7.7
2018-12-22T12:43:46.254Z,7.7
2018-12-22T12:44:46.638Z,7.7
2018-12-22T12:45:47.623Z,7.7
2018-12-22T12:46:47.601Z,7.7
2018-12-22T12:47:47.769Z,7.7
2018-12-22T12:48:47.720Z,7.8
2018-12-22T12:49:48.066Z,7.7
2018-12-22T12:50:48.506Z,7.8
2018-12-22T12:51:48.405Z,7.8
2018-12-22T12:52:48.292Z,7.7
2018-12-22T12:53:48.209Z,7.9
2018-12-22T12:54:48.106Z,7.8
2018-12-22T12:55:48.017Z,7.9
2018-12-22T12:56:47.924Z,8
2018-12-22T12:57:48.285Z,8.2
2018-12-22T12:58:48.170Z,8.2
2018-12-22T12:59:48.581Z,8.2
2018-12-22T13:00:48.510Z,8.2
2018-12-22T13:01:48.516Z,8.3
2018-12-22T13:02:48.418Z,8.3
2018-12-22T13:03:48.308Z,8.3
2018-12-22T13:04:48.204Z,8.3
2018-12-22T13:05:56.947Z,8.2
2018-12-22T13:06:56.914Z,8.3
2018-12-22T13:07:56.804Z,8.3
2018-12-22T13:08:57.144Z,8.2
2018-12-22T13:09:57.783Z,8.2
2018-12-22T13:11:01.608Z,8.2
2018-12-22T13:12:01.720Z,8.3
2018-12-22T13:13:01.624Z,8.3
2018-12-22T13:14:01.556Z,8.4
2018-12-22T13:15:01.483Z,8.3
2018-12-22T13:16:01.372Z,8.3
2018-12-22T13:17:01.489Z,8.4
2018-12-22T13:18:01.778Z,8.4
2018-12-22T13:19:01.863Z,8.4
2018-12-22T13:20:02.690Z,8.5
2018-12-22T13:21:02.991Z,8.5
2018-12-22T13:22:02.976Z,8.5
2018-12-22T13:23:03.115Z,8.5
2018-12-22T13:24:03.452Z,8.5
2018-12-22T13:25:03.379Z,8.6
2018-12-22T13:26:03.565Z,8.6
2018-12-22T13:27:03.691Z,8.6
2018-12-22T13:28:03.835Z,8.6
2018-12-22T13:29:03.755Z,8.6
2018-12-22T13:30:04.121Z,8.6
2018-12-22T13:31:04.022Z,8.6
2018-12-22T13:32:10.850Z,8.7
2018-12-22T13:33:11.448Z,8.7
2018-12-22T13:34:11.950Z,8.7
2018-12-22T13:35:11.855Z,8.6
2018-12-22T13:36:11.771Z,8.5
2018-12-22T13:37:11.675Z,8.5
2018-12-22T13:38:11.572Z,8.5
2018-12-22T13:39:11.467Z,8.5
2018-12-22T13:40:11.795Z,8.4
2018-12-22T13:41:11.683Z,8.4
2018-12-22T13:42:11.650Z,8.3
2018-12-22T13:43:11.834Z,8.3
2018-12-22T13:44:12.021Z,8.3
2018-12-22T13:45:12.082Z,8.3
2018-12-22T13:46:12.629Z,10.8
2018-12-22T13:47:12.567Z,8.4
2018-12-22T13:48:13.173Z,8.4
2018-12-22T13:49:14.707Z,8.4
2018-12-22T13:50:17.544Z,8.4
2018-12-22T13:51:18.935Z,8.4
2018-12-22T13:52:19.627Z,8.5